Time;durP1;ratioP1;P1;durP2;ratioP2;P2;SDS_P1;SDS_P2;PMS_P1;PMS_P2;Temp;Humidity;BMP_temperature;BMP_pressure;BME280_temperature;BME280_humidity;BME280_pressure;Samples;Min_cycle;Max_cycle;Signal;HPM_P1;HPM_P2
2022/04/23 00:02:06;;;;;;;13.98;6.68;;;358.90;2329.60;;;;;;5094033;28;20351;-65
2022/04/23 00:04:32;;;;;;;9.93;5.60;;;359.00;2329.60;;;;;;5093832;28;20028;-64
2022/04/23 00:06:58;;;;;;;8.75;5.68;;;359.00;2329.60;;;;;;5093912;28;20484;-64
2022/04/23 00:09:25;;;;;;;11.68;6.18;;;358.90;2329.60;;;;;;5093198;28;20028;-64
2022/04/23 00:11:52;;;;;;;11.38;6.03;;;358.90;2329.60;;;;;;5094147;28;20016;-65
2022/04/23 00:14:18;;;;;;;10.15;5.70;;;359.00;2329.60;;;;;;5093695;28;20081;-64
2022/04/23 00:16:44;;;;;;;9.48;5.95;;;358.90;2329.60;;;;;;5093414;28;20054;-64
2022/04/23 00:19:10;;;;;;;15.63;5.90;;;358.90;2329.60;;;;;;5093895;28;20055;-64
2022/04/23 00:21:36;;;;;;;11.38;6.13;;;359.00;2329.60;;;;;;5093865;28;20369;-66
2022/04/23 00:24:04;;;;;;;10.48;6.15;;;359.00;2329.60;;;;;;5093901;28;20107;-63
2022/04/23 00:26:30;;;;;;;10.85;6.00;;;358.90;2329.60;;;;;;5093688;28;20527;-64
2022/04/23 00:28:55;;;;;;;9.75;6.15;;;358.90;2329.60;;;;;;5093812;28;20028;-65
2022/04/23 00:31:21;;;;;;;12.75;6.03;;;359.00;2329.60;;;;;;5093816;28;20350;-63
2022/04/23 00:33:47;;;;;;;12.68;5.75;;;358.90;2329.60;;;;;;5093750;28;20025;-64
2022/04/23 00:36:12;;;;;;;9.10;6.32;;;358.90;2329.60;;;;;;5093623;28;20024;-64
2022/04/23 00:38:40;;;;;;;7.97;5.15;;;358.90;2329.60;;;;;;5093655;28;20036;-64
2022/04/23 00:41:07;;;;;;;7.45;5.45;;;359.00;2329.60;;;;;;5093606;28;20225;-64
2022/04/23 00:43:36;;;;;;;8.63;5.88;;;359.00;2329.60;;;;;;5093213;28;20023;-65
2022/04/23 00:46:03;;;;;;;12.18;6.63;;;358.90;2329.60;;;;;;5093452;28;20484;-63
2022/04/23 00:48:29;;;;;;;15.45;6.78;;;358.90;2329.60;;;;;;5093600;28;20109;-64
2022/04/23 00:50:59;;;;;;;20.42;5.93;;;358.90;2329.60;;;;;;5093581;28;20028;-64
2022/04/23 00:53:26;;;;;;;10.52;5.65;;;358.90;2329.60;;;;;;5093467;28;20028;-65
2022/04/23 00:55:55;;;;;;;19.10;12.25;;;358.90;2329.60;;;;;;5093484;28;20031;-63
2022/04/23 00:58:21;;;;;;;27.13;17.45;;;359.00;2329.60;;;;;;5093532;28;20428;-64
2022/04/23 01:00:47;;;;;;;26.13;12.00;;;359.00;2329.60;;;;;;5093267;28;20016;-64
2022/04/23 01:03:14;;;;;;;23.08;7.38;;;359.00;2329.60;;;;;;5091989;28;20537;-64
2022/04/23 01:05:46;;;;;;;11.80;6.75;;;358.90;2329.60;;;;;;5093498;28;20028;-65
2022/04/23 01:08:18;;;;;;;18.08;6.18;;;358.90;2329.60;;;;;;5093488;28;20101;-65
2022/04/23 01:10:45;;;;;;;18.27;5.82;;;359.00;2329.60;;;;;;5093398;28;20028;-63
2022/04/23 01:13:15;;;;;;;12.68;6.97;;;358.90;2329.60;;;;;;5093461;28;20347;-65
2022/04/23 01:16:02;;;;;;;15.27;6.00;;;359.00;2329.60;;;;;;5093363;28;20028;-65
2022/04/23 01:18:28;;;;;;;14.70;5.50;;;359.00;2329.60;;;;;;5092858;28;20390;-64
2022/04/23 01:20:59;;;;;;;22.42;5.03;;;359.00;2329.60;;;;;;5092888;28;20111;-65
2022/04/23 01:23:25;;;;;;;12.75;4.53;;;358.90;2329.60;;;;;;5096874;28;20024;-65
2022/04/23 01:25:52;;;;;;;13.23;3.95;;;358.90;2329.60;;;;;;5096663;28;20028;-63
2022/04/23 01:28:21;;;;;;;7.95;3.58;;;359.00;2329.60;;;;;;5096935;28;20024;-65
2022/04/23 01:30:52;;;;;;;11.35;4.18;;;359.00;2329.60;;;;;;5096749;28;20028;-65
2022/04/23 01:33:18;;;;;;;15.43;5.47;;;359.00;2329.60;;;;;;5096737;28;20024;-65
2022/04/23 01:35:44;;;;;;;14.73;4.50;;;359.10;2304.00;;;;;;5096653;28;20473;-64
2022/04/23 01:38:10;;;;;;;16.67;4.93;;;359.00;2329.60;;;;;;5096584;28;20043;-65
2022/04/23 01:40:36;;;;;;;10.43;4.82;;;358.90;2329.60;;;;;;5096309;28;20024;-65
2022/04/23 01:43:02;;;;;;;15.38;4.63;;;359.00;2329.60;;;;;;5096468;28;20047;-65
2022/04/23 01:45:28;;;;;;;11.73;4.28;;;358.90;2329.60;;;;;;5096488;28;20028;-64
2022/04/23 01:47:54;;;;;;;10.27;4.10;;;359.00;2329.60;;;;;;5096295;28;20030;-64
2022/04/23 01:50:19;;;;;;;14.55;3.88;;;359.10;2304.00;;;;;;5095959;28;20028;-64
2022/04/23 01:52:46;;;;;;;10.75;3.92;;;358.90;2329.60;;;;;;5096350;28;20452;-65
2022/04/23 01:55:12;;;;;;;9.52;3.70;;;359.00;2329.60;;;;;;5096204;28;20032;-64
2022/04/23 01:57:38;;;;;;;4.00;3.17;;;358.90;2329.60;;;;;;5095684;28;20048;-64
2022/04/23 02:00:10;;;;;;;6.15;3.60;;;358.80;2329.60;;;;;;5095932;28;20111;-65
2022/04/23 02:02:39;;;;;;;7.88;3.63;;;358.90;2329.60;;;;;;5096056;28;20040;-63
2022/04/23 02:05:07;;;;;;;6.95;3.30;;;358.80;2329.60;;;;;;5095847;28;20036;-65
2022/04/23 02:07:39;;;;;;;11.25;3.90;;;358.80;2329.60;;;;;;5094697;28;20016;-64
2022/04/23 02:10:06;;;;;;;8.63;3.67;;;358.80;2329.60;;;;;;5095808;28;20035;-64
2022/04/23 02:12:33;;;;;;;10.70;4.90;;;358.80;2329.60;;;;;;5096024;28;20024;-65
2022/04/23 02:14:59;;;;;;;11.85;5.50;;;358.80;2329.60;;;;;;5095938;28;20148;-64
2022/04/23 02:17:39;;;;;;;9.13;5.85;;;358.80;2329.60;;;;;;5095611;28;20031;-64
2022/04/23 02:20:10;;;;;;;12.18;8.20;;;358.80;2329.60;;;;;;5095714;28;20169;-63
2022/04/23 02:22:36;;;;;;;22.25;15.48;;;358.80;2329.60;;;;;;5095479;28;20054;-64
2022/04/23 02:25:05;;;;;;;31.27;22.35;;;358.80;2329.60;;;;;;5095669;28;20465;-63
2022/04/23 02:27:46;;;;;;;17.55;11.52;;;358.80;2304.00;;;;;;5095437;28;20032;-64
2022/04/23 02:30:14;;;;;;;15.73;7.35;;;358.70;2329.60;;;;;;5095603;28;20158;-64
2022/04/23 02:32:44;;;;;;;10.75;5.93;;;358.70;2329.60;;;;;;5095178;28;20024;-65
2022/04/23 02:35:11;;;;;;;9.23;4.82;;;358.70;2329.60;;;;;;5095313;28;20024;-64
2022/04/23 02:37:37;;;;;;;16.90;5.93;;;358.70;2329.60;;;;;;5094880;28;20047;-65
2022/04/23 02:40:10;;;;;;;7.55;4.90;;;358.60;2329.60;;;;;;5095119;28;20412;-63
2022/04/23 02:42:39;;;;;;;11.52;5.65;;;358.40;2329.60;;;;;;5095153;28;20028;-63
2022/04/23 02:45:07;;;;;;;7.78;5.28;;;333.70;2329.60;;;;;;5095139;28;20027;-64
2022/04/23 02:47:46;;;;;;;10.70;5.35;;;333.70;2329.60;;;;;;5095340;28;20048;-63
2022/04/23 02:50:13;;;;;;;6.97;5.38;;;333.70;2329.60;;;;;;5093504;28;20028;-63
2022/04/23 02:52:43;;;;;;;7.70;5.68;;;333.70;2329.60;;;;;;5095153;28;20044;-63
2022/04/23 02:55:12;;;;;;;10.27;5.10;;;333.70;2329.60;;;;;;5094933;28;20033;-65
2022/04/23 02:57:41;;;;;;;8.73;4.75;;;333.70;2329.60;;;;;;5094376;28;20078;-64
2022/04/23 03:00:08;;;;;;;9.30;5.13;;;358.40;2329.60;;;;;;5094948;28;20153;-65
2022/04/23 03:02:36;;;;;;;6.65;4.65;;;333.70;2329.60;;;;;;5094959;28;20036;-64
2022/04/23 03:05:06;;;;;;;7.13;4.32;;;358.40;2329.60;;;;;;5093493;28;20024;-63
2022/04/23 03:07:33;;;;;;;8.82;4.85;;;358.40;2329.60;;;;;;5094872;28;20075;-65
2022/04/23 03:09:59;;;;;;;10.88;4.85;;;358.40;2329.60;;;;;;5094563;28;20470;-63
2022/04/23 03:12:25;;;;;;;6.97;4.55;;;358.40;2329.60;;;;;;5094810;28;20032;-64
2022/04/23 03:14:50;;;;;;;8.00;4.68;;;358.40;2329.60;;;;;;5094662;28;20016;-64
2022/04/23 03:17:16;;;;;;;9.35;5.00;;;358.50;2329.60;;;;;;5094643;28;20351;-64
2022/04/23 03:19:42;;;;;;;7.60;4.72;;;358.50;2329.60;;;;;;5094718;28;20031;-65
2022/04/23 03:22:08;;;;;;;7.03;5.30;;;358.50;2329.60;;;;;;5094553;28;20374;-64
2022/04/23 03:24:33;;;;;;;8.20;4.90;;;358.50;2329.60;;;;;;5094572;28;20024;-63
2022/04/23 03:26:59;;;;;;;7.18;5.05;;;358.50;2329.60;;;;;;5094423;28;20027;-64
2022/04/23 03:29:24;;;;;;;8.00;4.95;;;358.40;2329.60;;;;;;5094539;28;20028;-64
2022/04/23 03:31:50;;;;;;;11.30;5.85;;;333.60;2329.60;;;;;;5094415;28;20028;-64
2022/04/23 03:34:18;;;;;;;8.45;6.43;;;333.60;2329.60;;;;;;5093855;28;20055;-65
2022/04/23 03:36:44;;;;;;;11.05;5.60;;;333.50;2329.60;;;;;;5094020;28;20020;-65
2022/04/23 03:39:10;;;;;;;9.63;5.53;;;333.50;2329.60;;;;;;5094182;28;20062;-64
2022/04/23 03:41:36;;;;;;;9.50;6.05;;;333.40;2329.60;;;;;;5094252;28;20545;-62
2022/04/23 03:44:02;;;;;;;10.60;6.90;;;333.40;2329.60;;;;;;5092452;28;20101;-61
2022/04/23 03:46:27;;;;;;;24.23;14.90;;;333.60;2329.60;;;;;;5094183;28;20085;-61
2022/04/23 03:48:53;;;;;;;21.30;11.52;;;333.50;2329.60;;;;;;5094002;28;20359;-61
2022/04/23 03:51:18;;;;;;;18.80;13.70;;;333.50;2329.60;;;;;;5092654;28;20063;-62
2022/04/23 03:53:44;;;;;;;23.95;14.77;;;333.50;2329.60;;;;;;5094174;28;20024;-62
2022/04/23 03:56:10;;;;;;;18.98;11.10;;;333.50;2329.60;;;;;;5093598;28;20072;-62
2022/04/23 03:58:36;;;;;;;22.65;12.60;;;333.50;2329.60;;;;;;5093764;28;20085;-62
2022/04/23 04:01:01;;;;;;;17.17;11.15;;;333.50;2329.60;;;;;;5093917;28;20055;-61
2022/04/23 04:03:27;;;;;;;23.00;12.63;;;333.60;2329.60;;;;;;5091530;28;20035;-61
2022/04/23 04:05:53;;;;;;;23.00;13.70;;;333.70;2329.60;;;;;;5093694;28;20024;-62
2022/04/23 04:08:20;;;;;;;26.00;15.45;;;333.50;2329.60;;;;;;5093917;28;20032;-62
2022/04/23 04:10:45;;;;;;;24.00;16.27;;;333.70;2329.60;;;;;;5093822;28;20162;-62
2022/04/23 04:13:14;;;;;;;26.95;17.05;;;333.70;2329.60;;;;;;5093698;28;20434;-61
2022/04/23 04:15:43;;;;;;;29.23;15.40;;;333.70;2329.60;;;;;;5093858;28;20043;-62
2022/04/23 04:18:11;;;;;;;21.75;14.30;;;333.70;2329.60;;;;;;5093523;28;20105;-62
2022/04/23 04:20:37;;;;;;;25.30;16.13;;;333.60;2329.60;;;;;;5093505;28;20020;-62
2022/04/23 04:23:05;;;;;;;28.05;15.57;;;333.50;2329.60;;;;;;5093582;28;20035;-62
2022/04/23 04:25:30;;;;;;;22.83;15.48;;;333.60;2329.60;;;;;;5093391;28;20102;-63
2022/04/23 04:27:58;;;;;;;25.15;13.90;;;333.60;2329.60;;;;;;5093743;28;20111;-62
2022/04/23 04:30:24;;;;;;;27.58;16.98;;;333.50;2329.60;;;;;;5093788;28;20077;-61
2022/04/23 04:32:49;;;;;;;25.15;16.98;;;333.50;2329.60;;;;;;5093637;28;20466;-62
2022/04/23 04:35:15;;;;;;;25.52;15.43;;;333.50;2329.60;;;;;;5093445;28;20051;-62
2022/04/23 04:37:41;;;;;;;30.63;18.42;;;333.60;2329.60;;;;;;5093583;28;20077;-63
2022/04/23 04:40:07;;;;;;;29.27;18.73;;;333.60;2329.60;;;;;;5093811;28;20016;-63
2022/04/23 04:42:33;;;;;;;32.92;18.15;;;333.50;2329.60;;;;;;5093419;28;20469;-62
2022/04/23 04:44:59;;;;;;;30.45;19.50;;;333.50;2329.60;;;;;;5093561;28;20027;-62
2022/04/23 04:47:24;;;;;;;32.95;19.17;;;333.40;2329.60;;;;;;5093400;28;20017;-62
2022/04/23 04:49:50;;;;;;;27.27;18.05;;;333.70;2329.60;;;;;;5093409;28;20032;-61
2022/04/23 04:52:16;;;;;;;29.38;19.02;;;358.40;2329.60;;;;;;5092004;28;20036;-60
2022/04/23 04:54:41;;;;;;;34.00;21.10;;;333.70;2329.60;;;;;;5092979;28;20024;-61
2022/04/23 04:57:07;;;;;;;33.50;20.13;;;333.50;2329.60;;;;;;5095612;28;20393;-62
2022/04/23 04:59:33;;;;;;;30.98;17.33;;;333.50;2329.60;;;;;;5097229;28;20035;-62
2022/04/23 05:02:02;;;;;;;34.38;20.95;;;333.70;2329.60;;;;;;5095607;28;20032;-62
2022/04/23 05:04:28;;;;;;;34.65;21.10;;;333.70;2329.60;;;;;;5097175;28;20024;-60
2022/04/23 05:06:53;;;;;;;30.15;19.52;;;333.70;2329.60;;;;;;5096884;28;20454;-62
2022/04/23 05:09:19;;;;;;;36.72;21.55;;;358.40;2329.60;;;;;;5097090;28;20050;-61
2022/04/23 05:11:45;;;;;;;34.65;20.83;;;358.40;2329.60;;;;;;5096580;28;20062;-62
2022/04/23 05:14:10;;;;;;;33.15;20.83;;;358.40;2329.60;;;;;;5096867;28;20077;-61
2022/04/23 05:16:36;;;;;;;37.75;22.42;;;333.70;2329.60;;;;;;5096865;28;20032;-62
2022/04/23 05:19:02;;;;;;;30.52;21.27;;;333.70;2329.60;;;;;;5097017;28;20032;-62
2022/04/23 05:21:28;;;;;;;34.40;20.48;;;333.70;2329.60;;;;;;5096614;28;20358;-62
2022/04/23 05:23:54;;;;;;;37.33;21.52;;;358.40;2329.60;;;;;;5096653;28;20050;-63
2022/04/23 05:26:19;;;;;;;33.47;20.48;;;358.60;2329.60;;;;;;5096509;28;20024;-62
2022/04/23 05:28:45;;;;;;;30.90;20.80;;;358.50;2329.60;;;;;;5095321;28;20120;-62
2022/04/23 05:31:11;;;;;;;32.78;20.70;;;358.60;2329.60;;;;;;5096759;28;20031;-66
2022/04/23 05:33:38;;;;;;;36.65;21.45;;;358.60;2329.60;;;;;;5096535;28;20028;-62
2022/04/23 05:36:06;;;;;;;32.35;20.50;;;358.60;2329.60;;;;;;5094850;28;20032;-62
2022/04/23 05:38:32;;;;;;;31.23;20.40;;;358.70;2329.60;;;;;;5094979;28;20047;-63
2022/04/23 05:40:58;;;;;;;31.55;22.00;;;358.70;2329.60;;;;;;5096422;28;20025;-62
2022/04/23 05:43:23;;;;;;;34.65;23.50;;;358.60;2329.60;;;;;;5096415;28;20110;-63
2022/04/23 05:45:50;;;;;;;32.72;22.73;;;358.60;2329.60;;;;;;5096225;28;20024;-63
2022/04/23 05:48:16;;;;;;;31.30;22.00;;;358.60;2329.60;;;;;;5096474;28;20030;-63
2022/04/23 05:50:42;;;;;;;37.95;23.25;;;358.60;2329.60;;;;;;5094116;28;20028;-63
2022/04/23 05:53:07;;;;;;;29.42;21.95;;;358.60;2329.60;;;;;;5096081;28;20050;-62
2022/04/23 05:55:34;;;;;;;33.78;24.63;;;358.70;2329.60;;;;;;5095982;28;20024;-62
2022/04/23 05:58:00;;;;;;;35.10;24.45;;;358.60;2329.60;;;;;;5095575;28;20047;-60
2022/04/23 06:00:26;;;;;;;30.15;23.30;;;358.60;2329.60;;;;;;5095955;28;20382;-61
2022/04/23 06:02:51;;;;;;;34.17;23.52;;;358.60;2329.60;;;;;;5095664;28;20470;-57
2022/04/23 06:05:17;;;;;;;29.05;22.20;;;358.50;2329.60;;;;;;5094779;28;20024;-59
2022/04/23 06:07:43;;;;;;;29.05;21.77;;;358.50;2329.60;;;;;;5094268;28;20024;-58
2022/04/23 06:10:10;;;;;;;36.33;22.50;;;358.60;2329.60;;;;;;5094040;28;20350;-63
2022/04/23 06:12:36;;;;;;;31.25;23.02;;;358.60;2329.60;;;;;;5095472;28;20505;-58
2022/04/23 06:15:02;;;;;;;31.05;22.25;;;358.50;2329.60;;;;;;5095821;28;20042;-62
2022/04/23 06:17:29;;;;;;;33.88;23.52;;;358.50;2329.60;;;;;;5095482;28;20047;-64
2022/04/23 06:19:57;;;;;;;33.88;24.08;;;358.60;2329.60;;;;;;5094740;28;20039;-64
2022/04/23 06:22:23;;;;;;;34.92;25.63;;;358.60;2329.60;;;;;;5095072;28;20023;-65
2022/04/23 06:24:50;;;;;;;30.60;23.67;;;358.60;2329.60;;;;;;5094854;28;20036;-65
2022/04/23 06:27:16;;;;;;;37.85;25.45;;;358.60;2329.60;;;;;;5095149;28;20028;-65
2022/04/23 06:29:42;;;;;;;38.50;25.42;;;358.60;2329.60;;;;;;5094997;28;20020;-63
2022/04/23 06:32:11;;;;;;;30.02;23.05;;;358.50;2329.60;;;;;;5094693;28;20028;-65
2022/04/23 06:34:37;;;;;;;33.50;24.17;;;358.40;2329.60;;;;;;5092618;28;20435;-60
2022/04/23 06:37:04;;;;;;;27.85;20.00;;;358.40;2329.60;;;;;;5094663;28;20047;-64
2022/04/23 06:39:30;;;;;;;26.08;20.85;;;333.70;2329.60;;;;;;5094744;28;20024;-64
2022/04/23 06:41:56;;;;;;;29.92;21.10;;;333.60;2329.60;;;;;;5093979;28;20031;-64
2022/04/23 06:44:21;;;;;;;23.13;18.52;;;333.60;2329.60;;;;;;5094198;28;20118;-65
2022/04/23 06:46:47;;;;;;;30.02;21.65;;;333.60;2329.60;;;;;;5093991;28;20460;-62
2022/04/23 06:49:13;;;;;;;26.67;20.58;;;333.70;2329.60;;;;;;5094443;28;20110;-65
2022/04/23 06:51:40;;;;;;;23.02;18.10;;;333.70;2329.60;;;;;;5093620;28;20431;-63
2022/04/23 06:54:07;;;;;;;22.95;18.13;;;333.70;2329.60;;;;;;5093517;28;20036;-65
2022/04/23 06:56:32;;;;;;;18.48;13.82;;;333.70;2329.60;;;;;;5094506;28;20048;-64
2022/04/23 06:58:59;;;;;;;17.02;14.00;;;333.70;2329.60;;;;;;5094685;28;20032;-64
2022/04/23 07:01:25;;;;;;;17.63;13.32;;;358.50;2329.60;;;;;;5094912;28;20045;-63
2022/04/23 07:03:51;;;;;;;18.40;13.57;;;358.40;2329.60;;;;;;5094953;28;20086;-65
2022/04/23 07:06:16;;;;;;;16.35;13.70;;;358.40;2329.60;;;;;;5094846;28;20021;-65
2022/04/23 07:08:44;;;;;;;20.30;12.77;;;333.70;2329.60;;;;;;5094662;28;20038;-61
2022/04/23 07:11:10;;;;;;;14.85;13.13;;;358.40;2329.60;;;;;;5094770;28;20028;-71
2022/04/23 07:13:36;;;;;;;24.38;12.98;;;358.40;2329.60;;;;;;5094723;28;20024;-66
2022/04/23 07:16:05;;;;;;;17.33;12.52;;;358.60;2329.60;;;;;;5094595;28;20081;-70
